sensor_id;sensor_type;location;lat;lon;timestamp;P1;durP1;ratioP1;P2;durP2;ratioP2
54947;SDS011;41113;41.882;12.530;2023-09-19T00:02:19;11.80;;;7.00;;
54947;SDS011;41113;41.882;12.530;2023-09-19T00:04:44;12.70;;;6.35;;
54947;SDS011;41113;41.882;12.530;2023-09-19T00:07:10;12.40;;;6.78;;
54947;SDS011;41113;41.882;12.530;2023-09-19T00:09:35;11.32;;;6.30;;
54947;SDS011;41113;41.882;12.530;2023-09-19T00:12:06;10.80;;;6.77;;
54947;SDS011;41113;41.882;12.530;2023-09-19T00:14:34;14.85;;;7.82;;
54947;SDS011;41113;41.882;12.530;2023-09-19T00:17:00;13.88;;;7.35;;
54947;SDS011;41113;41.882;12.530;2023-09-19T00:19:30;11.70;;;6.90;;
54947;SDS011;41113;41.882;12.530;2023-09-19T00:21:58;15.65;;;6.53;;
54947;SDS011;41113;41.882;12.530;2023-09-19T00:24:24;12.25;;;6.75;;
54947;SDS011;41113;41.882;12.530;2023-09-19T00:26:49;15.68;;;7.10;;
54947;SDS011;41113;41.882;12.530;2023-09-19T00:29:14;12.70;;;6.25;;
54947;SDS011;41113;41.882;12.530;2023-09-19T00:31:44;12.23;;;6.70;;
54947;SDS011;41113;41.882;12.530;2023-09-19T00:34:09;9.33;;;5.50;;
54947;SDS011;41113;41.882;12.530;2023-09-19T00:36:36;15.43;;;7.00;;
54947;SDS011;41113;41.882;12.530;2023-09-19T00:39:03;11.93;;;7.20;;
54947;SDS011;41113;41.882;12.530;2023-09-19T00:41:30;13.80;;;6.47;;
54947;SDS011;41113;41.882;12.530;2023-09-19T00:43:59;17.50;;;8.02;;
54947;SDS011;41113;41.882;12.530;2023-09-19T00:46:26;14.15;;;7.68;;
54947;SDS011;41113;41.882;12.530;2023-09-19T00:48:52;19.38;;;8.35;;
54947;SDS011;41113;41.882;12.530;2023-09-19T00:51:22;15.88;;;8.60;;
54947;SDS011;41113;41.882;12.530;2023-09-19T00:53:47;14.43;;;9.13;;
54947;SDS011;41113;41.882;12.530;2023-09-19T00:56:14;16.45;;;8.95;;
54947;SDS011;41113;41.882;12.530;2023-09-19T00:58:43;13.38;;;7.82;;
54947;SDS011;41113;41.882;12.530;2023-09-19T01:01:09;14.88;;;8.30;;
54947;SDS011;41113;41.882;12.530;2023-09-19T01:03:36;13.40;;;8.35;;
54947;SDS011;41113;41.882;12.530;2023-09-19T01:06:02;14.77;;;8.25;;
54947;SDS011;41113;41.882;12.530;2023-09-19T01:08:29;14.10;;;7.93;;
54947;SDS011;41113;41.882;12.530;2023-09-19T01:11:37;14.93;;;8.50;;
54947;SDS011;41113;41.882;12.530;2023-09-19T01:13:50;18.08;;;9.05;;
54947;SDS011;41113;41.882;12.530;2023-09-19T01:22:07;18.00;;;11.25;;
54947;SDS011;41113;41.882;12.530;2023-09-19T01:28:00;17.85;;;11.45;;
54947;SDS011;41113;41.882;12.530;2023-09-19T01:30:39;18.42;;;10.82;;
54947;SDS011;41113;41.882;12.530;2023-09-19T01:33:08;20.77;;;11.35;;
54947;SDS011;41113;41.882;12.530;2023-09-19T01:35:37;17.88;;;11.73;;
54947;SDS011;41113;41.882;12.530;2023-09-19T01:38:04;20.23;;;11.60;;
54947;SDS011;41113;41.882;12.530;2023-09-19T01:40:43;16.92;;;11.45;;
54947;SDS011;41113;41.882;12.530;2023-09-19T01:43:36;16.08;;;10.73;;
54947;SDS011;41113;41.882;12.530;2023-09-19T01:49:00;24.35;;;13.40;;
54947;SDS011;41113;41.882;12.530;2023-09-19T01:51:58;17.75;;;11.98;;
54947;SDS011;41113;41.882;12.530;2023-09-19T01:54:30;19.92;;;11.88;;
54947;SDS011;41113;41.882;12.530;2023-09-19T01:57:03;18.83;;;11.82;;
54947;SDS011;41113;41.882;12.530;2023-09-19T01:59:47;17.98;;;12.07;;
54947;SDS011;41113;41.882;12.530;2023-09-19T02:02:16;18.48;;;13.00;;
54947;SDS011;41113;41.882;12.530;2023-09-19T02:04:42;22.50;;;13.68;;
54947;SDS011;41113;41.882;12.530;2023-09-19T02:07:08;27.67;;;13.02;;
54947;SDS011;41113;41.882;12.530;2023-09-19T02:09:34;21.50;;;12.73;;
54947;SDS011;41113;41.882;12.530;2023-09-19T02:12:00;21.33;;;12.70;;
54947;SDS011;41113;41.882;12.530;2023-09-19T02:14:34;18.80;;;11.48;;
54947;SDS011;41113;41.882;12.530;2023-09-19T02:17:01;21.33;;;12.48;;
54947;SDS011;41113;41.882;12.530;2023-09-19T02:19:28;17.58;;;11.38;;
54947;SDS011;41113;41.882;12.530;2023-09-19T02:21:54;16.20;;;11.73;;
54947;SDS011;41113;41.882;12.530;2023-09-19T02:24:20;18.55;;;10.25;;
54947;SDS011;41113;41.882;12.530;2023-09-19T02:26:45;16.55;;;10.20;;
54947;SDS011;41113;41.882;12.530;2023-09-19T02:29:12;14.45;;;9.68;;
54947;SDS011;41113;41.882;12.530;2023-09-19T02:31:38;21.38;;;9.88;;
54947;SDS011;41113;41.882;12.530;2023-09-19T02:34:04;14.07;;;8.63;;
54947;SDS011;41113;41.882;12.530;2023-09-19T02:36:31;13.30;;;8.45;;
54947;SDS011;41113;41.882;12.530;2023-09-19T02:38:57;15.90;;;7.85;;
54947;SDS011;41113;41.882;12.530;2023-09-19T02:41:22;14.82;;;8.57;;
54947;SDS011;41113;41.882;12.530;2023-09-19T02:43:47;13.98;;;8.45;;
54947;SDS011;41113;41.882;12.530;2023-09-19T02:46:13;14.02;;;7.65;;
54947;SDS011;41113;41.882;12.530;2023-09-19T02:48:38;13.43;;;7.78;;
54947;SDS011;41113;41.882;12.530;2023-09-19T02:51:04;14.63;;;7.38;;
54947;SDS011;41113;41.882;12.530;2023-09-19T02:53:30;14.20;;;8.10;;
54947;SDS011;41113;41.882;12.530;2023-09-19T02:55:56;12.40;;;7.53;;
54947;SDS011;41113;41.882;12.530;2023-09-19T02:58:22;14.38;;;8.30;;
54947;SDS011;41113;41.882;12.530;2023-09-19T03:00:48;14.93;;;7.82;;
54947;SDS011;41113;41.882;12.530;2023-09-19T03:03:16;11.60;;;7.60;;
54947;SDS011;41113;41.882;12.530;2023-09-19T03:05:42;15.38;;;8.88;;
54947;SDS011;41113;41.882;12.530;2023-09-19T03:08:11;13.98;;;8.05;;
54947;SDS011;41113;41.882;12.530;2023-09-19T03:10:39;14.52;;;7.70;;
54947;SDS011;41113;41.882;12.530;2023-09-19T03:13:05;14.95;;;8.07;;
54947;SDS011;41113;41.882;12.530;2023-09-19T03:15:30;12.85;;;7.63;;
54947;SDS011;41113;41.882;12.530;2023-09-19T03:17:56;19.73;;;11.23;;
54947;SDS011;41113;41.882;12.530;2023-09-19T03:20:24;18.42;;;11.55;;
54947;SDS011;41113;41.882;12.530;2023-09-19T03:22:50;20.00;;;10.85;;
54947;SDS011;41113;41.882;12.530;2023-09-19T03:25:17;16.67;;;9.98;;
54947;SDS011;41113;41.882;12.530;2023-09-19T03:27:42;19.20;;;11.23;;
54947;SDS011;41113;41.882;12.530;2023-09-19T03:30:08;17.40;;;11.57;;
54947;SDS011;41113;41.882;12.530;2023-09-19T03:32:37;15.98;;;10.43;;
54947;SDS011;41113;41.882;12.530;2023-09-19T03:35:08;21.20;;;12.68;;
54947;SDS011;41113;41.882;12.530;2023-09-19T03:37:36;16.23;;;10.70;;
54947;SDS011;41113;41.882;12.530;2023-09-19T03:40:01;17.83;;;10.75;;
54947;SDS011;41113;41.882;12.530;2023-09-19T03:42:30;16.87;;;11.27;;
54947;SDS011;41113;41.882;12.530;2023-09-19T03:44:56;15.32;;;9.85;;
54947;SDS011;41113;41.882;12.530;2023-09-19T03:47:21;15.80;;;10.15;;
54947;SDS011;41113;41.882;12.530;2023-09-19T03:49:47;17.23;;;10.40;;
54947;SDS011;41113;41.882;12.530;2023-09-19T03:52:12;18.27;;;9.75;;
54947;SDS011;41113;41.882;12.530;2023-09-19T03:54:38;18.13;;;10.32;;
54947;SDS011;41113;41.882;12.530;2023-09-19T03:57:06;15.65;;;10.30;;
54947;SDS011;41113;41.882;12.530;2023-09-19T03:59:31;20.92;;;11.30;;
54947;SDS011;41113;41.882;12.530;2023-09-19T04:01:57;22.20;;;11.73;;
54947;SDS011;41113;41.882;12.530;2023-09-19T04:04:23;19.08;;;11.15;;
54947;SDS011;41113;41.882;12.530;2023-09-19T04:06:50;16.65;;;10.63;;
54947;SDS011;41113;41.882;12.530;2023-09-19T04:09:16;18.25;;;11.18;;
54947;SDS011;41113;41.882;12.530;2023-09-19T04:11:41;18.88;;;11.20;;
54947;SDS011;41113;41.882;12.530;2023-09-19T04:14:06;17.40;;;10.10;;
54947;SDS011;41113;41.882;12.530;2023-09-19T04:16:32;19.25;;;11.88;;
54947;SDS011;41113;41.882;12.530;2023-09-19T04:18:57;21.02;;;13.88;;
54947;SDS011;41113;41.882;12.530;2023-09-19T04:21:22;19.90;;;12.38;;
54947;SDS011;41113;41.882;12.530;2023-09-19T04:23:48;23.67;;;12.50;;
54947;SDS011;41113;41.882;12.530;2023-09-19T04:26:13;21.00;;;11.82;;
54947;SDS011;41113;41.882;12.530;2023-09-19T04:28:41;23.00;;;11.18;;
54947;SDS011;41113;41.882;12.530;2023-09-19T04:31:08;20.05;;;10.82;;
54947;SDS011;41113;41.882;12.530;2023-09-19T04:33:36;24.58;;;13.85;;
54947;SDS011;41113;41.882;12.530;2023-09-19T04:36:02;19.90;;;11.60;;
54947;SDS011;41113;41.882;12.530;2023-09-19T04:38:30;21.67;;;12.85;;
54947;SDS011;41113;41.882;12.530;2023-09-19T04:40:58;20.50;;;11.07;;
54947;SDS011;41113;41.882;12.530;2023-09-19T04:43:24;18.90;;;11.85;;
54947;SDS011;41113;41.882;12.530;2023-09-19T04:45:50;19.92;;;11.23;;
54947;SDS011;41113;41.882;12.530;2023-09-19T04:48:19;20.40;;;10.57;;
54947;SDS011;41113;41.882;12.530;2023-09-19T04:50:44;18.42;;;10.07;;
54947;SDS011;41113;41.882;12.530;2023-09-19T04:53:10;18.17;;;9.93;;
54947;SDS011;41113;41.882;12.530;2023-09-19T04:55:35;21.52;;;10.20;;
54947;SDS011;41113;41.882;12.530;2023-09-19T04:58:01;17.63;;;10.20;;
54947;SDS011;41113;41.882;12.530;2023-09-19T05:00:27;17.52;;;9.77;;
54947;SDS011;41113;41.882;12.530;2023-09-19T05:02:55;20.92;;;10.07;;
54947;SDS011;41113;41.882;12.530;2023-09-19T05:05:21;16.70;;;10.07;;
54947;SDS011;41113;41.882;12.530;2023-09-19T05:07:48;18.95;;;8.93;;
54947;SDS011;41113;41.882;12.530;2023-09-19T05:10:14;15.25;;;8.63;;
54947;SDS011;41113;41.882;12.530;2023-09-19T05:12:40;15.77;;;8.70;;
54947;SDS011;41113;41.882;12.530;2023-09-19T05:15:06;20.48;;;11.15;;
54947;SDS011;41113;41.882;12.530;2023-09-19T05:17:33;23.20;;;12.60;;
54947;SDS011;41113;41.882;12.530;2023-09-19T05:19:59;20.85;;;11.88;;
54947;SDS011;41113;41.882;12.530;2023-09-19T05:25:32;16.52;;;9.63;;
54947;SDS011;41113;41.882;12.530;2023-09-19T05:28:02;19.73;;;9.45;;
54947;SDS011;41113;41.882;12.530;2023-09-19T05:30:30;17.23;;;9.43;;
54947;SDS011;41113;41.882;12.530;2023-09-19T05:32:56;19.33;;;8.40;;
54947;SDS011;41113;41.882;12.530;2023-09-19T05:35:24;16.25;;;7.97;;
54947;SDS011;41113;41.882;12.530;2023-09-19T05:37:50;19.23;;;8.55;;
54947;SDS011;41113;41.882;12.530;2023-09-19T05:40:19;17.67;;;8.15;;
54947;SDS011;41113;41.882;12.530;2023-09-19T05:42:44;19.25;;;8.82;;
54947;SDS011;41113;41.882;12.530;2023-09-19T05:45:10;17.13;;;8.13;;
54947;SDS011;41113;41.882;12.530;2023-09-19T05:47:43;18.02;;;8.55;;
54947;SDS011;41113;41.882;12.530;2023-09-19T05:50:10;16.38;;;8.05;;
54947;SDS011;41113;41.882;12.530;2023-09-19T05:52:37;15.15;;;8.30;;
54947;SDS011;41113;41.882;12.530;2023-09-19T05:55:04;16.60;;;7.20;;
54947;SDS011;41113;41.882;12.530;2023-09-19T05:57:31;13.32;;;7.30;;
54947;SDS011;41113;41.882;12.530;2023-09-19T05:59:57;16.65;;;8.18;;
54947;SDS011;41113;41.882;12.530;2023-09-19T06:02:23;19.30;;;8.52;;
54947;SDS011;41113;41.882;12.530;2023-09-19T06:04:48;16.30;;;8.65;;
54947;SDS011;41113;41.882;12.530;2023-09-19T06:07:14;19.77;;;8.57;;
54947;SDS011;41113;41.882;12.530;2023-09-19T06:09:40;20.20;;;9.48;;
54947;SDS011;41113;41.882;12.530;2023-09-19T06:12:05;17.20;;;8.10;;
54947;SDS011;41113;41.882;12.530;2023-09-19T06:14:31;20.10;;;8.95;;
54947;SDS011;41113;41.882;12.530;2023-09-19T06:16:56;19.73;;;8.13;;
54947;SDS011;41113;41.882;12.530;2023-09-19T06:19:22;17.40;;;9.13;;
54947;SDS011;41113;41.882;12.530;2023-09-19T06:21:48;15.95;;;8.50;;
54947;SDS011;41113;41.882;12.530;2023-09-19T06:24:14;16.55;;;8.50;;
54947;SDS011;41113;41.882;12.530;2023-09-19T06:26:39;19.65;;;9.73;;
54947;SDS011;41113;41.882;12.530;2023-09-19T06:29:05;19.63;;;8.95;;
54947;SDS011;41113;41.882;12.530;2023-09-19T06:31:32;18.83;;;9.32;;
54947;SDS011;41113;41.882;12.530;2023-09-19T06:33:58;16.65;;;9.13;;
54947;SDS011;41113;41.882;12.530;2023-09-19T06:36:23;17.98;;;9.55;;
54947;SDS011;41113;41.882;12.530;2023-09-19T06:38:49;18.80;;;9.55;;
54947;SDS011;41113;41.882;12.530;2023-09-19T06:41:16;21.33;;;10.73;;
54947;SDS011;41113;41.882;12.530;2023-09-19T06:43:42;26.80;;;10.85;;
54947;SDS011;41113;41.882;12.530;2023-09-19T06:46:08;21.33;;;10.70;;
54947;SDS011;41113;41.882;12.530;2023-09-19T06:48:34;23.40;;;11.10;;
54947;SDS011;41113;41.882;12.530;2023-09-19T06:51:00;20.05;;;10.27;;
54947;SDS011;41113;41.882;12.530;2023-09-19T06:53:27;17.23;;;9.38;;
54947;SDS011;41113;41.882;12.530;2023-09-19T06:55:52;17.17;;;9.57;;
54947;SDS011;41113;41.882;12.530;2023-09-19T06:58:18;15.75;;;9.18;;
54947;SDS011;41113;41.882;12.530;2023-09-19T07:00:44;17.27;;;9.18;;
54947;SDS011;41113;41.882;12.530;2023-09-19T07:03:10;21.17;;;10.15;;
54947;SDS011;41113;41.882;12.530;2023-09-19T07:05:38;17.80;;;9.53;;
54947;SDS011;41113;41.882;12.530;2023-09-19T07:08:05;22.15;;;10.23;;
54947;SDS011;41113;41.882;12.530;2023-09-19T07:10:31;23.33;;;10.48;;
54947;SDS011;41113;41.882;12.530;2023-09-19T07:15:24;20.13;;;10.10;;
54947;SDS011;41113;41.882;12.530;2023-09-19T07:17:53;19.60;;;9.82;;
54947;SDS011;41113;41.882;12.530;2023-09-19T07:20:21;20.70;;;9.18;;
54947;SDS011;41113;41.882;12.530;2023-09-19T07:22:47;13.77;;;8.07;;
54947;SDS011;41113;41.882;12.530;2023-09-19T07:25:16;14.85;;;8.05;;
54947;SDS011;41113;41.882;12.530;2023-09-19T07:27:42;21.08;;;8.50;;
54947;SDS011;41113;41.882;12.530;2023-09-19T07:30:08;15.95;;;8.07;;
54947;SDS011;41113;41.882;12.530;2023-09-19T07:32:34;17.60;;;8.38;;
54947;SDS011;41113;41.882;12.530;2023-09-19T07:35:01;17.85;;;7.43;;
54947;SDS011;41113;41.882;12.530;2023-09-19T07:37:29;16.90;;;7.40;;
54947;SDS011;41113;41.882;12.530;2023-09-19T07:39:56;14.33;;;7.80;;
54947;SDS011;41113;41.882;12.530;2023-09-19T07:42:21;14.85;;;6.53;;
54947;SDS011;41113;41.882;12.530;2023-09-19T07:44:47;14.80;;;6.78;;
54947;SDS011;41113;41.882;12.530;2023-09-19T07:47:15;16.67;;;7.60;;
54947;SDS011;41113;41.882;12.530;2023-09-19T07:49:41;17.42;;;7.50;;
54947;SDS011;41113;41.882;12.530;2023-09-19T07:52:07;16.40;;;7.82;;
54947;SDS011;41113;41.882;12.530;2023-09-19T07:54:34;17.13;;;7.50;;
54947;SDS011;41113;41.882;12.530;2023-09-19T07:57:00;16.88;;;8.05;;
54947;SDS011;41113;41.882;12.530;2023-09-19T07:59:26;17.50;;;8.65;;
54947;SDS011;41113;41.882;12.530;2023-09-19T08:01:52;22.30;;;8.10;;
54947;SDS011;41113;41.882;12.530;2023-09-19T08:04:19;19.05;;;7.80;;
54947;SDS011;41113;41.882;12.530;2023-09-19T08:06:44;15.23;;;7.20;;
54947;SDS011;41113;41.882;12.530;2023-09-19T08:09:10;13.10;;;6.38;;
54947;SDS011;41113;41.882;12.530;2023-09-19T08:11:36;14.60;;;6.90;;
54947;SDS011;41113;41.882;12.530;2023-09-19T08:14:01;13.40;;;6.57;;
54947;SDS011;41113;41.882;12.530;2023-09-19T08:16:27;13.88;;;6.50;;
54947;SDS011;41113;41.882;12.530;2023-09-19T08:18:53;16.10;;;7.38;;
54947;SDS011;41113;41.882;12.530;2023-09-19T08:21:21;15.60;;;7.35;;
54947;SDS011;41113;41.882;12.530;2023-09-19T08:23:47;13.25;;;6.57;;
54947;SDS011;41113;41.882;12.530;2023-09-19T08:26:12;18.42;;;7.70;;
54947;SDS011;41113;41.882;12.530;2023-09-19T08:28:37;13.70;;;7.07;;
54947;SDS011;41113;41.882;12.530;2023-09-19T08:31:05;16.88;;;7.30;;
54947;SDS011;41113;41.882;12.530;2023-09-19T08:33:33;14.40;;;6.97;;
54947;SDS011;41113;41.882;12.530;2023-09-19T08:36:00;13.65;;;6.40;;
54947;SDS011;41113;41.882;12.530;2023-09-19T08:40:59;13.23;;;6.70;;
54947;SDS011;41113;41.882;12.530;2023-09-19T08:43:25;14.82;;;6.30;;
54947;SDS011;41113;41.882;12.530;2023-09-19T08:45:57;14.55;;;6.28;;
54947;SDS011;41113;41.882;12.530;2023-09-19T08:48:28;14.90;;;6.60;;
54947;SDS011;41113;41.882;12.530;2023-09-19T08:50:56;16.60;;;6.20;;
54947;SDS011;41113;41.882;12.530;2023-09-19T08:53:28;15.15;;;6.10;;
54947;SDS011;41113;41.882;12.530;2023-09-19T08:56:03;13.70;;;5.22;;
54947;SDS011;41113;41.882;12.530;2023-09-19T08:58:34;13.13;;;5.18;;
54947;SDS011;41113;41.882;12.530;2023-09-19T09:01:09;11.50;;;4.78;;
54947;SDS011;41113;41.882;12.530;2023-09-19T09:03:35;15.75;;;5.00;;
54947;SDS011;41113;41.882;12.530;2023-09-19T09:06:02;11.38;;;5.07;;
54947;SDS011;41113;41.882;12.530;2023-09-19T09:08:28;11.57;;;5.30;;
54947;SDS011;41113;41.882;12.530;2023-09-19T09:10:55;12.75;;;4.90;;
54947;SDS011;41113;41.882;12.530;2023-09-19T09:13:22;10.90;;;5.07;;
54947;SDS011;41113;41.882;12.530;2023-09-19T09:15:51;10.13;;;4.43;;
54947;SDS011;41113;41.882;12.530;2023-09-19T09:18:16;12.20;;;5.28;;
54947;SDS011;41113;41.882;12.530;2023-09-19T09:20:42;12.30;;;5.05;;
54947;SDS011;41113;41.882;12.530;2023-09-19T09:23:09;14.23;;;5.18;;
54947;SDS011;41113;41.882;12.530;2023-09-19T09:25:50;12.85;;;5.22;;
54947;SDS011;41113;41.882;12.530;2023-09-19T09:28:29;12.00;;;5.22;;
54947;SDS011;41113;41.882;12.530;2023-09-19T09:30:56;10.95;;;4.53;;
54947;SDS011;41113;41.882;12.530;2023-09-19T09:33:33;10.93;;;4.68;;
54947;SDS011;41113;41.882;12.530;2023-09-19T09:35:59;16.58;;;5.18;;
54947;SDS011;41113;41.882;12.530;2023-09-19T09:38:28;11.80;;;5.57;;
54947;SDS011;41113;41.882;12.530;2023-09-19T09:41:15;11.35;;;4.38;;
54947;SDS011;41113;41.882;12.530;2023-09-19T09:43:52;13.07;;;4.78;;
54947;SDS011;41113;41.882;12.530;2023-09-19T09:46:18;10.80;;;4.43;;
54947;SDS011;41113;41.882;12.530;2023-09-19T09:51:39;9.38;;;4.07;;
54947;SDS011;41113;41.882;12.530;2023-09-19T09:54:26;9.48;;;3.97;;
54947;SDS011;41113;41.882;12.530;2023-09-19T09:56:59;11.45;;;4.20;;
54947;SDS011;41113;41.882;12.530;2023-09-19T10:02:30;13.43;;;4.22;;
54947;SDS011;41113;41.882;12.530;2023-09-19T10:05:11;13.50;;;4.50;;
54947;SDS011;41113;41.882;12.530;2023-09-19T10:07:53;10.25;;;4.05;;
54947;SDS011;41113;41.882;12.530;2023-09-19T10:10:31;10.77;;;4.18;;
54947;SDS011;41113;41.882;12.530;2023-09-19T10:13:13;11.05;;;4.47;;
54947;SDS011;41113;41.882;12.530;2023-09-19T10:15:43;12.02;;;4.38;;
54947;SDS011;41113;41.882;12.530;2023-09-19T10:18:19;14.38;;;4.35;;
54947;SDS011;41113;41.882;12.530;2023-09-19T10:20:49;10.00;;;4.18;;
54947;SDS011;41113;41.882;12.530;2023-09-19T10:23:16;11.55;;;4.30;;
54947;SDS011;41113;41.882;12.530;2023-09-19T10:25:47;8.88;;;3.92;;
54947;SDS011;41113;41.882;12.530;2023-09-19T10:28:14;10.90;;;3.85;;
54947;SDS011;41113;41.882;12.530;2023-09-19T10:30:42;11.02;;;3.42;;
54947;SDS011;41113;41.882;12.530;2023-09-19T10:33:12;10.50;;;3.97;;
54947;SDS011;41113;41.882;12.530;2023-09-19T10:35:42;10.98;;;4.05;;
54947;SDS011;41113;41.882;12.530;2023-09-19T10:38:12;11.57;;;4.07;;
54947;SDS011;41113;41.882;12.530;2023-09-19T10:40:39;12.93;;;4.22;;
54947;SDS011;41113;41.882;12.530;2023-09-19T10:43:12;9.48;;;3.92;;
54947;SDS011;41113;41.882;12.530;2023-09-19T10:45:44;13.77;;;4.55;;
54947;SDS011;41113;41.882;12.530;2023-09-19T10:48:11;12.18;;;4.53;;
54947;SDS011;41113;41.882;12.530;2023-09-19T10:53:10;10.82;;;4.38;;
54947;SDS011;41113;41.882;12.530;2023-09-19T10:55:37;13.77;;;4.38;;
54947;SDS011;41113;41.882;12.530;2023-09-19T10:58:03;12.10;;;3.97;;
54947;SDS011;41113;41.882;12.530;2023-09-19T11:00:58;10.95;;;3.83;;
54947;SDS011;41113;41.882;12.530;2023-09-19T11:03:43;13.00;;;3.90;;
54947;SDS011;41113;41.882;12.530;2023-09-19T11:06:13;10.32;;;4.10;;
54947;SDS011;41113;41.882;12.530;2023-09-19T11:08:50;12.98;;;3.95;;
54947;SDS011;41113;41.882;12.530;2023-09-19T11:22:24;9.27;;;3.75;;
54947;SDS011;41113;41.882;12.530;2023-09-19T11:24:51;10.30;;;3.95;;
54947;SDS011;41113;41.882;12.530;2023-09-19T11:27:16;10.05;;;3.60;;
54947;SDS011;41113;41.882;12.530;2023-09-19T11:29:43;9.88;;;3.88;;
54947;SDS011;41113;41.882;12.530;2023-09-19T11:32:09;9.82;;;3.80;;
54947;SDS011;41113;41.882;12.530;2023-09-19T11:37:00;12.43;;;3.77;;
54947;SDS011;41113;41.882;12.530;2023-09-19T11:39:29;11.60;;;3.78;;
54947;SDS011;41113;41.882;12.530;2023-09-19T11:41:54;9.88;;;4.07;;
54947;SDS011;41113;41.882;12.530;2023-09-19T11:44:54;11.18;;;3.75;;
54947;SDS011;41113;41.882;12.530;2023-09-19T11:47:14;10.98;;;4.25;;
54947;SDS011;41113;41.882;12.530;2023-09-19T11:49:44;9.95;;;3.90;;
54947;SDS011;41113;41.882;12.530;2023-09-19T11:52:09;10.52;;;3.42;;
54947;SDS011;41113;41.882;12.530;2023-09-19T11:54:35;10.88;;;4.00;;
54947;SDS011;41113;41.882;12.530;2023-09-19T11:57:05;9.73;;;4.10;;
54947;SDS011;41113;41.882;12.530;2023-09-19T11:59:31;10.00;;;3.72;;
54947;SDS011;41113;41.882;12.530;2023-09-19T12:02:00;11.45;;;3.97;;
54947;SDS011;41113;41.882;12.530;2023-09-19T12:04:35;11.90;;;4.43;;
54947;SDS011;41113;41.882;12.530;2023-09-19T12:07:11;12.75;;;3.67;;
54947;SDS011;41113;41.882;12.530;2023-09-19T12:09:44;11.50;;;3.97;;
54947;SDS011;41113;41.882;12.530;2023-09-19T12:12:23;11.93;;;3.97;;
54947;SDS011;41113;41.882;12.530;2023-09-19T12:14:52;10.20;;;3.90;;
54947;SDS011;41113;41.882;12.530;2023-09-19T12:17:18;10.73;;;4.03;;
54947;SDS011;41113;41.882;12.530;2023-09-19T12:19:55;14.73;;;4.32;;
54947;SDS011;41113;41.882;12.530;2023-09-19T12:22:21;9.50;;;3.88;;
54947;SDS011;41113;41.882;12.530;2023-09-19T12:24:47;11.90;;;4.50;;
54947;SDS011;41113;41.882;12.530;2023-09-19T12:27:13;10.07;;;3.97;;
54947;SDS011;41113;41.882;12.530;2023-09-19T12:29:44;10.45;;;4.05;;
54947;SDS011;41113;41.882;12.530;2023-09-19T12:32:10;11.32;;;4.07;;
54947;SDS011;41113;41.882;12.530;2023-09-19T12:34:36;13.55;;;4.20;;
54947;SDS011;41113;41.882;12.530;2023-09-19T12:39:40;10.90;;;4.00;;
54947;SDS011;41113;41.882;12.530;2023-09-19T12:42:21;14.65;;;4.30;;
54947;SDS011;41113;41.882;12.530;2023-09-19T12:44:49;12.20;;;4.20;;
54947;SDS011;41113;41.882;12.530;2023-09-19T12:47:21;11.02;;;3.95;;
54947;SDS011;41113;41.882;12.530;2023-09-19T12:50:04;10.10;;;3.97;;
54947;SDS011;41113;41.882;12.530;2023-09-19T12:52:38;9.27;;;3.83;;
54947;SDS011;41113;41.882;12.530;2023-09-19T12:55:05;12.52;;;4.22;;
54947;SDS011;41113;41.882;12.530;2023-09-19T12:57:33;12.07;;;3.90;;
54947;SDS011;41113;41.882;12.530;2023-09-19T13:00:03;11.63;;;3.92;;
54947;SDS011;41113;41.882;12.530;2023-09-19T13:02:32;9.95;;;3.78;;
54947;SDS011;41113;41.882;12.530;2023-09-19T13:04:58;11.13;;;3.50;;
54947;SDS011;41113;41.882;12.530;2023-09-19T13:07:44;12.55;;;4.22;;
54947;SDS011;41113;41.882;12.530;2023-09-19T13:10:15;11.68;;;3.78;;
54947;SDS011;41113;41.882;12.530;2023-09-19T13:12:41;12.65;;;3.80;;
54947;SDS011;41113;41.882;12.530;2023-09-19T13:15:12;11.60;;;3.50;;
54947;SDS011;41113;41.882;12.530;2023-09-19T13:17:50;9.75;;;3.35;;
54947;SDS011;41113;41.882;12.530;2023-09-19T13:20:24;10.73;;;3.85;;
54947;SDS011;41113;41.882;12.530;2023-09-19T13:22:54;8.20;;;3.17;;
54947;SDS011;41113;41.882;12.530;2023-09-19T13:25:23;12.25;;;3.63;;
54947;SDS011;41113;41.882;12.530;2023-09-19T13:27:51;11.10;;;3.47;;
54947;SDS011;41113;41.882;12.530;2023-09-19T13:30:20;8.85;;;3.10;;
54947;SDS011;41113;41.882;12.530;2023-09-19T13:32:46;10.23;;;3.15;;
54947;SDS011;41113;41.882;12.530;2023-09-19T13:35:12;9.57;;;3.15;;
54947;SDS011;41113;41.882;12.530;2023-09-19T13:37:39;8.98;;;3.80;;
54947;SDS011;41113;41.882;12.530;2023-09-19T13:40:10;8.43;;;3.38;;
54947;SDS011;41113;41.882;12.530;2023-09-19T13:42:36;10.98;;;3.40;;
54947;SDS011;41113;41.882;12.530;2023-09-19T13:45:02;12.82;;;3.20;;
54947;SDS011;41113;41.882;12.530;2023-09-19T13:47:29;10.77;;;3.28;;
54947;SDS011;41113;41.882;12.530;2023-09-19T13:49:59;9.85;;;2.97;;
54947;SDS011;41113;41.882;12.530;2023-09-19T13:52:25;8.43;;;2.80;;
54947;SDS011;41113;41.882;12.530;2023-09-19T13:54:53;8.52;;;2.97;;
54947;SDS011;41113;41.882;12.530;2023-09-19T13:57:22;11.27;;;3.30;;
54947;SDS011;41113;41.882;12.530;2023-09-19T13:59:47;8.88;;;3.10;;
54947;SDS011;41113;41.882;12.530;2023-09-19T14:02:12;11.25;;;3.42;;
54947;SDS011;41113;41.882;12.530;2023-09-19T14:04:39;14.45;;;3.45;;
54947;SDS011;41113;41.882;12.530;2023-09-19T14:07:05;9.00;;;2.70;;
54947;SDS011;41113;41.882;12.530;2023-09-19T14:09:32;10.85;;;3.08;;
54947;SDS011;41113;41.882;12.530;2023-09-19T14:11:58;10.98;;;3.00;;
54947;SDS011;41113;41.882;12.530;2023-09-19T14:14:24;12.63;;;2.70;;
54947;SDS011;41113;41.882;12.530;2023-09-19T14:16:49;11.77;;;2.80;;
54947;SDS011;41113;41.882;12.530;2023-09-19T14:19:17;11.07;;;2.90;;
54947;SDS011;41113;41.882;12.530;2023-09-19T14:21:42;12.18;;;3.42;;
54947;SDS011;41113;41.882;12.530;2023-09-19T14:24:08;10.98;;;3.03;;
54947;SDS011;41113;41.882;12.530;2023-09-19T14:26:34;11.63;;;2.63;;
54947;SDS011;41113;41.882;12.530;2023-09-19T14:29:02;9.17;;;2.70;;
54947;SDS011;41113;41.882;12.530;2023-09-19T14:31:27;12.15;;;2.90;;
54947;SDS011;41113;41.882;12.530;2023-09-19T14:33:54;11.25;;;3.05;;
54947;SDS011;41113;41.882;12.530;2023-09-19T14:36:20;8.25;;;3.13;;
54947;SDS011;41113;41.882;12.530;2023-09-19T14:38:46;10.77;;;2.92;;
54947;SDS011;41113;41.882;12.530;2023-09-19T14:41:12;17.27;;;3.10;;
54947;SDS011;41113;41.882;12.530;2023-09-19T14:43:38;12.77;;;3.20;;
54947;SDS011;41113;41.882;12.530;2023-09-19T14:46:04;10.38;;;3.30;;
54947;SDS011;41113;41.882;12.530;2023-09-19T14:48:29;9.32;;;3.05;;
54947;SDS011;41113;41.882;12.530;2023-09-19T14:50:55;13.38;;;2.83;;
54947;SDS011;41113;41.882;12.530;2023-09-19T14:53:27;11.18;;;2.83;;
54947;SDS011;41113;41.882;12.530;2023-09-19T14:55:53;9.18;;;3.05;;
54947;SDS011;41113;41.882;12.530;2023-09-19T14:58:20;12.48;;;3.45;;
54947;SDS011;41113;41.882;12.530;2023-09-19T15:00:46;12.50;;;3.53;;
54947;SDS011;41113;41.882;12.530;2023-09-19T15:03:11;11.15;;;2.88;;
54947;SDS011;41113;41.882;12.530;2023-09-19T15:05:37;11.63;;;3.47;;
54947;SDS011;41113;41.882;12.530;2023-09-19T15:08:02;12.45;;;3.78;;
54947;SDS011;41113;41.882;12.530;2023-09-19T15:10:28;10.65;;;3.15;;
54947;SDS011;41113;41.882;12.530;2023-09-19T15:12:53;10.88;;;3.50;;